Terminal Aerodrome Forecast
Issued by NWS

Home | Current Version | Previous Version | Text Only | Print | Product List | Glossary On
Versions: 1 2 3 4 5 6 7 8 9 10 11 12 13 14
000
FTUS42 KMHX 240759 AAA
TAFPGV
TAF AMD
KPGV 240759Z 2408/2506 VRB03KT 1SM BR SCT200
      TEMPO 2408/2410 1/2SM FG
     FM241000 VRB03KT 5SM BR SCT200
      TEMPO 2410/2412 1SM BR
     FM241400 VRB04KT P6SM SCT120
     FM241900 14008KT P6SM SCT090
     FM250300 VRB04KT P6SM SCT250
      AMD LTD TO CLD VIS AND WIND=

USA.gov is the U.S. government's official web portal to all federal, state and local government web resources and services.